Time;durP1;ratioP1;P1;durP2;ratioP2;P2;SDS_P1;SDS_P2;PMS_P1;PMS_P2;Temp;Humidity;BMP_temperature;BMP_pressure;BME280_temperature;BME280_humidity;BME280_pressure;Samples;Min_cycle;Max_cycle;Signal;HPM_P1;HPM_P2
2021/10/01 00:01:43;;;;;;;11.20;2.72;;;18.70;72.80;;;;;;5049469;28;20095;-77
2021/10/01 00:04:11;;;;;;;6.40;2.15;;;18.70;72.80;;;;;;5041842;28;20024;-76
2021/10/01 00:06:39;;;;;;;11.55;2.53;;;18.70;72.90;;;;;;5051923;28;20372;-76
2021/10/01 00:09:06;;;;;;;16.13;3.05;;;18.70;73.00;;;;;;5047311;28;20101;-76
2021/10/01 00:11:32;;;;;;;8.32;2.28;;;18.60;72.90;;;;;;5045197;28;20021;-76
2021/10/01 00:13:59;;;;;;;11.88;3.53;;;18.50;73.00;;;;;;5045342;28;20488;-76
2021/10/01 00:16:25;;;;;;;8.00;3.30;;;18.50;73.00;;;;;;5044539;28;20024;-75
2021/10/01 00:18:52;;;;;;;14.35;2.70;;;18.50;73.30;;;;;;5045060;28;20101;-76
2021/10/01 00:21:18;;;;;;;7.97;2.33;;;18.60;73.70;;;;;;5046203;28;20021;-76
2021/10/01 00:23:45;;;;;;;12.45;4.18;;;18.50;73.80;;;;;;5049329;28;20030;-76
2021/10/01 00:26:11;;;;;;;10.20;2.80;;;18.50;74.00;;;;;;5041982;28;20099;-76
2021/10/01 00:28:38;;;;;;;11.57;2.53;;;18.50;74.30;;;;;;5048796;28;20475;-76
2021/10/01 00:31:05;;;;;;;19.30;3.13;;;18.50;74.40;;;;;;5046584;28;20025;-76
2021/10/01 00:33:31;;;;;;;6.63;2.90;;;18.50;74.30;;;;;;5047477;28;20403;-76
2021/10/01 00:36:00;;;;;;;8.25;2.33;;;18.50;74.20;;;;;;5048490;28;20032;-76
2021/10/01 00:38:28;;;;;;;9.02;2.90;;;18.50;74.30;;;;;;5048233;28;20023;-77
2021/10/01 00:40:54;;;;;;;12.98;2.78;;;18.50;74.40;;;;;;5044079;28;20112;-76
2021/10/01 00:43:21;;;;;;;11.23;3.85;;;18.50;74.50;;;;;;5043539;28;20021;-76
2021/10/01 00:45:47;;;;;;;11.82;3.35;;;18.50;74.60;;;;;;5048277;28;20495;-76
2021/10/01 00:48:14;;;;;;;11.25;2.78;;;18.50;74.80;;;;;;5043772;28;20128;-76
2021/10/01 00:50:41;;;;;;;10.43;2.63;;;18.50;75.00;;;;;;5047189;28;20024;-75
2021/10/01 00:53:08;;;;;;;9.13;2.63;;;18.40;75.00;;;;;;5046777;28;20368;-78
2021/10/01 00:55:34;;;;;;;6.60;2.05;;;18.40;75.00;;;;;;5049302;28;20021;-76
2021/10/01 00:58:01;;;;;;;7.30;2.22;;;18.40;75.00;;;;;;5049070;28;20032;-77
2021/10/01 01:00:27;;;;;;;6.30;2.38;;;18.40;74.90;;;;;;5045498;28;20044;-77
2021/10/01 01:03:08;;;;;;;9.07;2.75;;;18.40;74.30;;;;;;5046074;28;20041;-76
2021/10/01 01:06:01;;;;;;;5.30;2.25;;;18.40;73.70;;;;;;5043436;28;20384;-77
2021/10/01 01:08:43;;;;;;;10.77;2.28;;;18.30;73.60;;;;;;5008060;28;20033;-76
2021/10/01 01:11:34;;;;;;;5.78;1.80;;;18.40;74.00;;;;;;5046820;28;20020;-77
2021/10/01 01:14:26;;;;;;;11.50;1.95;;;18.30;74.20;;;;;;5049290;28;20013;-76
2021/10/01 01:16:56;;;;;;;6.22;1.73;;;18.30;74.40;;;;;;5039061;28;20365;-76
2021/10/01 01:19:49;;;;;;;6.93;1.90;;;18.30;74.40;;;;;;5048437;28;20496;-76
2021/10/01 01:22:53;;;;;;;9.98;3.28;;;18.30;74.70;;;;;;5022825;28;20091;-77
2021/10/01 01:25:37;;;;;;;7.38;1.88;;;18.20;74.80;;;;;;5059296;28;20357;-76
2021/10/01 01:28:24;;;;;;;3.83;1.88;;;18.20;74.90;;;;;;5043267;28;20535;-75
2021/10/01 01:30:51;;;;;;;7.38;2.20;;;18.20;75.50;;;;;;5049153;28;20104;-76
2021/10/01 01:33:31;;;;;;;3.90;2.10;;;18.20;74.60;;;;;;5049317;28;20041;-76
2021/10/01 01:35:59;;;;;;;4.30;2.55;;;18.20;74.60;;;;;;5045979;28;20029;-76
2021/10/01 01:38:31;;;;;;;6.47;2.60;;;18.20;74.70;;;;;;5042985;28;20028;-77
2021/10/01 01:41:00;;;;;;;5.28;1.73;;;18.10;74.50;;;;;;5046682;28;20028;-76
2021/10/01 01:43:29;;;;;;;2.55;1.30;;;18.10;74.40;;;;;;5048609;28;20025;-76
2021/10/01 01:45:56;;;;;;;3.67;1.50;;;18.10;74.30;;;;;;5047119;28;20053;-76
2021/10/01 01:48:24;;;;;;;7.93;1.85;;;18.20;74.20;;;;;;5044278;28;20039;-77
2021/10/01 01:50:52;;;;;;;7.10;2.35;;;18.10;75.20;;;;;;5043244;28;20022;-76
2021/10/01 01:53:19;;;;;;;7.55;1.98;;;18.20;75.80;;;;;;5044760;28;20420;-76
2021/10/01 01:55:47;;;;;;;10.38;3.75;;;18.10;76.20;;;;;;5044119;28;20032;-76
2021/10/01 01:58:15;;;;;;;6.25;2.00;;;18.10;76.50;;;;;;5043234;28;20010;-77
2021/10/01 02:00:43;;;;;;;11.30;2.22;;;18.10;76.70;;;;;;5046975;28;20080;-76
2021/10/01 02:03:10;;;;;;;6.95;2.25;;;18.10;76.60;;;;;;5047541;28;20032;-77
2021/10/01 02:05:46;;;;;;;8.93;2.22;;;18.10;76.60;;;;;;5043181;28;20535;-77
2021/10/01 02:08:14;;;;;;;5.95;1.85;;;18.10;76.40;;;;;;5043681;28;20029;-77
2021/10/01 02:10:45;;;;;;;8.40;2.20;;;18.10;76.10;;;;;;5047109;28;20014;-75
2021/10/01 02:13:13;;;;;;;4.47;1.70;;;18.10;75.60;;;;;;5044285;28;20396;-76
2021/10/01 02:15:42;;;;;;;6.57;2.08;;;18.10;75.00;;;;;;5045856;28;20063;-77
2021/10/01 02:18:09;;;;;;;6.93;1.63;;;18.10;75.30;;;;;;5047950;28;20021;-77
2021/10/01 02:20:37;;;;;;;4.88;1.70;;;18.10;75.70;;;;;;5043127;28;20028;-76
2021/10/01 02:23:05;;;;;;;7.35;3.55;;;18.00;76.30;;;;;;5044858;28;20461;-77
2021/10/01 02:28:49;;;;;;;6.63;1.50;;;17.90;77.00;;;;;;5044468;28;20048;-77
2021/10/01 02:31:24;;;;;;;5.72;1.77;;;17.90;77.00;;;;;;5025763;28;20044;-78
2021/10/01 02:33:52;;;;;;;4.90;1.90;;;17.90;77.30;;;;;;5045216;28;20017;-76
2021/10/01 02:36:19;;;;;;;10.80;3.25;;;17.90;77.80;;;;;;5042355;28;20079;-76
2021/10/01 02:38:46;;;;;;;7.13;1.75;;;17.90;78.10;;;;;;5042763;28;20029;-76
2021/10/01 02:41:13;;;;;;;6.45;3.20;;;17.90;78.30;;;;;;5045545;28;20083;-76
2021/10/01 02:43:39;;;;;;;3.28;1.83;;;17.90;78.40;;;;;;5044367;28;20031;-76
2021/10/01 02:46:06;;;;;;;5.57;1.65;;;17.90;78.10;;;;;;5044998;28;20013;-77
2021/10/01 02:48:35;;;;;;;3.22;1.40;;;17.90;77.50;;;;;;5043570;28;20021;-77
2021/10/01 02:51:08;;;;;;;7.03;2.72;;;17.90;77.10;;;;;;5047908;28;20653;-77
2021/10/01 02:53:55;;;;;;;6.30;1.70;;;17.90;77.20;;;;;;5044056;28;20101;-76
2021/10/01 02:56:30;;;;;;;8.18;2.75;;;17.90;77.60;;;;;;5037979;28;20116;-76
2021/10/01 02:59:01;;;;;;;;;;;17.90;78.20;;;;;;5044123;28;20032;-77
2021/10/01 03:01:30;;;;;;;7.30;2.13;;;17.90;78.30;;;;;;5042346;28;19908;-78
2021/10/01 03:04:09;;;;;;;6.47;2.03;;;17.90;78.50;;;;;;5044463;28;20039;-77
2021/10/01 03:06:40;;;;;;;3.65;1.58;;;17.80;78.40;;;;;;5041620;28;20033;-77
2021/10/01 03:09:08;;;;;;;4.75;1.58;;;17.80;78.60;;;;;;5044301;28;20036;-78
2021/10/01 03:11:36;;;;;;;8.48;3.38;;;17.80;78.90;;;;;;5046059;28;20484;-78
2021/10/01 03:14:04;;;;;;;9.52;1.85;;;17.80;79.40;;;;;;5046821;28;20031;-77
2021/10/01 03:16:36;;;;;;;9.60;2.00;;;17.80;79.40;;;;;;5043692;28;20025;-77
2021/10/01 03:19:04;;;;;;;10.15;1.90;;;17.80;79.30;;;;;;5034133;28;20022;-76
2021/10/01 03:21:32;;;;;;;6.35;1.92;;;17.80;79.00;;;;;;5041159;28;20020;-75
2021/10/01 03:23:59;;;;;;;3.25;1.77;;;17.80;79.20;;;;;;5042991;28;20051;-77
2021/10/01 03:26:27;;;;;;;4.57;1.30;;;17.70;79.20;;;;;;5046465;28;20020;-76
2021/10/01 03:28:53;;;;;;;8.55;2.50;;;17.70;79.70;;;;;;5047410;28;20025;-76
2021/10/01 03:31:23;;;;;;;6.25;1.67;;;17.70;79.80;;;;;;5048448;28;20495;-76
2021/10/01 03:33:49;;;;;;;11.43;1.95;;;17.70;79.90;;;;;;5048059;28;20373;-77
2021/10/01 03:36:16;;;;;;;14.68;2.47;;;17.70;80.00;;;;;;5048706;28;20025;-76
2021/10/01 03:38:47;;;;;;;6.95;1.83;;;17.70;80.20;;;;;;5040928;28;20568;-76
2021/10/01 03:41:15;;;;;;;8.93;1.42;;;17.70;80.30;;;;;;5045289;28;20612;-77
2021/10/01 03:43:54;;;;;;;6.68;2.13;;;17.70;80.40;;;;;;5050963;28;20043;-78
2021/10/01 03:46:21;;;;;;;5.05;1.15;;;17.70;80.80;;;;;;5032598;28;20089;-75
2021/10/01 03:48:47;;;;;;;12.40;7.25;;;17.70;80.90;;;;;;5048437;28;20022;-77
2021/10/01 03:51:15;;;;;;;12.95;6.93;;;17.70;80.70;;;;;;5050189;28;20371;-77
2021/10/01 03:53:41;;;;;;;4.22;1.92;;;17.60;80.10;;;;;;5048328;28;20480;-76
2021/10/01 03:56:13;;;;;;;7.15;1.70;;;17.70;79.90;;;;;;5052034;28;20049;-77
2021/10/01 03:58:40;;;;;;;5.13;1.55;;;17.70;79.50;;;;;;5047345;28;20475;-71
2021/10/01 04:01:06;;;;;;;4.60;1.90;;;17.60;79.60;;;;;;5048021;28;20056;-77
2021/10/01 04:03:33;;;;;;;4.93;2.08;;;17.70;80.30;;;;;;5048100;28;20119;-76
2021/10/01 04:05:59;;;;;;;6.80;2.75;;;17.60;80.60;;;;;;5043677;28;20499;-75
2021/10/01 04:08:26;;;;;;;6.55;4.53;;;17.60;80.90;;;;;;5048028;28;20060;-74
2021/10/01 04:10:52;;;;;;;28.92;22.20;;;17.60;81.20;;;;;;5048112;28;20025;-71
2021/10/01 04:13:19;;;;;;;22.92;14.98;;;17.60;81.50;;;;;;5049582;28;20079;-74
2021/10/01 04:15:45;;;;;;;15.05;9.98;;;17.60;81.50;;;;;;5040747;28;20028;-73
2021/10/01 04:18:12;;;;;;;25.17;15.38;;;17.60;81.40;;;;;;5048490;28;20040;-74
2021/10/01 04:20:41;;;;;;;24.50;17.77;;;17.70;81.40;;;;;;5043300;28;20955;-76
2021/10/01 04:23:08;;;;;;;22.00;13.15;;;17.60;81.40;;;;;;5048968;28;20545;-74
2021/10/01 04:25:34;;;;;;;14.85;9.90;;;17.70;81.70;;;;;;5042079;28;20079;-73
2021/10/01 04:28:04;;;;;;;9.52;6.35;;;17.60;81.90;;;;;;5046952;28;20408;-73
2021/10/01 04:30:30;;;;;;;7.68;5.47;;;17.60;82.20;;;;;;5043398;28;20028;-73
2021/10/01 04:33:12;;;;;;;10.43;3.90;;;17.60;82.50;;;;;;5043695;28;20013;-74
2021/10/01 04:35:38;;;;;;;22.42;17.20;;;17.70;83.00;;;;;;5029407;28;20036;-74
2021/10/01 04:38:05;;;;;;;8.80;5.53;;;17.70;82.90;;;;;;5049932;28;20774;-75
2021/10/01 04:40:33;;;;;;;11.73;3.22;;;17.60;82.70;;;;;;5045848;28;20091;-73
2021/10/01 04:43:01;;;;;;;8.57;2.58;;;17.60;82.80;;;;;;5050950;28;20037;-72
2021/10/01 04:45:35;;;;;;;6.38;2.38;;;17.60;83.00;;;;;;5047858;28;20040;-76
2021/10/01 04:48:06;;;;;;;4.82;2.70;;;17.70;83.10;;;;;;5045694;28;20506;-74
2021/10/01 04:50:34;;;;;;;4.40;1.88;;;17.60;83.10;;;;;;5043068;28;20092;-76
2021/10/01 04:53:01;;;;;;;7.45;1.58;;;17.70;83.20;;;;;;5045639;28;20048;-76
2021/10/01 04:55:28;;;;;;;4.53;1.40;;;17.60;83.10;;;;;;5044671;28;20044;-76
2021/10/01 04:57:55;;;;;;;3.70;1.48;;;17.70;83.30;;;;;;5042915;28;20021;-75
2021/10/01 05:00:22;;;;;;;4.88;1.80;;;17.60;83.10;;;;;;5043724;28;20053;-76
2021/10/01 05:02:48;;;;;;;5.70;1.85;;;17.60;83.50;;;;;;5039292;28;20381;-73
2021/10/01 05:05:15;;;;;;;8.68;2.30;;;17.60;83.70;;;;;;5043509;28;20033;-75
2021/10/01 05:07:41;;;;;;;7.28;1.60;;;17.60;83.60;;;;;;5042823;28;20082;-73
2021/10/01 05:10:08;;;;;;;5.68;1.58;;;17.60;83.80;;;;;;5043119;28;20013;-75
2021/10/01 05:12:35;;;;;;;7.47;1.42;;;17.60;83.80;;;;;;5042369;28;20031;-73
2021/10/01 05:15:02;;;;;;;7.55;2.38;;;17.60;83.90;;;;;;5040924;28;20017;-73
2021/10/01 05:17:29;;;;;;;6.45;1.38;;;17.60;84.00;;;;;;5042212;28;20571;-73
2021/10/01 05:19:56;;;;;;;4.97;1.67;;;17.60;84.20;;;;;;5036912;28;20024;-74
2021/10/01 05:22:22;;;;;;;5.40;1.75;;;17.60;84.10;;;;;;5040290;28;20038;-74
2021/10/01 05:24:49;;;;;;;6.45;2.10;;;17.50;83.80;;;;;;5040693;28;20025;-73
2021/10/01 05:27:15;;;;;;;5.78;2.35;;;17.50;84.00;;;;;;5039502;28;20032;-74
2021/10/01 05:29:42;;;;;;;8.10;1.73;;;17.60;84.20;;;;;;5043159;28;20051;-74
2021/10/01 05:32:16;;;;;;;7.82;1.90;;;17.60;84.20;;;;;;5042125;28;20104;-73
2021/10/01 05:34:43;;;;;;;4.72;1.55;;;17.60;84.10;;;;;;5038324;28;20036;-74
2021/10/01 05:37:09;;;;;;;4.22;2.25;;;17.60;83.90;;;;;;5040908;28;20066;-72
2021/10/01 05:39:36;;;;;;;7.10;2.47;;;17.70;83.70;;;;;;5047570;28;20017;-74
2021/10/01 05:42:03;;;;;;;4.80;2.20;;;17.70;83.50;;;;;;5042887;28;20448;-74
2021/10/01 05:44:30;;;;;;;7.35;1.92;;;17.70;83.30;;;;;;5049384;28;20108;-74
2021/10/01 05:47:00;;;;;;;11.43;3.47;;;17.80;83.10;;;;;;5043882;28;20029;-74
2021/10/01 05:49:31;;;;;;;6.45;2.72;;;17.80;83.00;;;;;;5046472;28;20017;-73
2021/10/01 05:52:13;;;;;;;8.02;2.30;;;17.80;83.00;;;;;;5043807;28;20036;-73
2021/10/01 05:54:39;;;;;;;5.28;1.13;;;17.80;82.80;;;;;;5045456;28;20407;-73
2021/10/01 05:57:08;;;;;;;4.30;1.30;;;17.80;82.60;;;;;;5045283;28;20025;-74
2021/10/01 05:59:37;;;;;;;5.63;1.45;;;17.80;82.50;;;;;;5046697;28;20037;-74
2021/10/01 06:02:04;;;;;;;5.60;1.08;;;17.90;82.50;;;;;;5046422;28;20040;-73
2021/10/01 06:04:30;;;;;;;6.65;1.30;;;17.90;82.40;;;;;;5042200;28;20028;-73
2021/10/01 06:06:57;;;;;;;6.68;1.27;;;17.90;82.40;;;;;;5041833;28;20100;-74
2021/10/01 06:09:24;;;;;;;4.20;1.85;;;17.90;82.20;;;;;;5043541;28;20021;-74
2021/10/01 06:11:51;;;;;;;5.75;1.48;;;18.00;82.10;;;;;;5045589;28;20487;-74
2021/10/01 06:14:22;;;;;;;2.85;1.33;;;17.90;81.50;;;;;;5045181;28;20017;-73
2021/10/01 06:16:51;;;;;;;7.72;1.60;;;18.00;81.70;;;;;;5044708;28;20021;-74
2021/10/01 06:19:18;;;;;;;7.97;2.00;;;18.00;81.80;;;;;;5043594;28;20543;-75
2021/10/01 06:21:45;;;;;;;15.20;2.30;;;18.10;81.60;;;;;;5046703;28;20055;-73
2021/10/01 06:24:12;;;;;;;4.07;1.45;;;18.10;81.50;;;;;;5043801;28;20059;-74
2021/10/01 06:26:40;;;;;;;3.45;2.00;;;18.20;81.40;;;;;;5044506;28;20024;-74
2021/10/01 06:29:07;;;;;;;4.55;2.42;;;18.20;81.70;;;;;;5041024;28;20024;-74
2021/10/01 06:31:33;;;;;;;9.20;3.38;;;18.30;81.00;;;;;;5045502;28;20021;-75
2021/10/01 06:34:00;;;;;;;7.38;1.50;;;18.30;80.80;;;;;;5047295;28;20445;-74
2021/10/01 06:36:26;;;;;;;4.82;1.50;;;18.30;80.50;;;;;;5041607;28;20474;-74
2021/10/01 06:38:53;;;;;;;3.65;1.30;;;18.40;80.10;;;;;;5044053;28;20067;-74
2021/10/01 06:41:20;;;;;;;5.63;1.10;;;18.40;79.80;;;;;;5041693;28;20020;-74
2021/10/01 06:43:46;;;;;;;3.58;0.90;;;18.50;79.50;;;;;;5049221;28;20033;-74
2021/10/01 07:21:59;;;;;;;2.30;0.47;;;19.00;74.20;;;;;;5047738;28;20089;-75
2021/10/01 08:19:22;;;;;;;1.10;0.68;;;20.40;69.40;;;;;;5052106;28;20075;-74
2021/10/01 08:21:51;;;;;;;3.53;1.00;;;20.40;69.10;;;;;;5048823;28;20017;-74
2021/10/01 08:24:18;;;;;;;2.20;1.27;;;20.50;68.80;;;;;;5046942;28;20036;-74
2021/10/01 08:26:46;;;;;;;1.92;0.90;;;20.50;68.90;;;;;;5045297;28;20532;-74
2021/10/01 08:29:13;;;;;;;3.72;0.60;;;20.60;68.90;;;;;;5045868;28;20021;-74
2021/10/01 08:31:40;;;;;;;2.63;0.73;;;20.60;68.60;;;;;;5040178;28;20018;-74
2021/10/01 08:34:07;;;;;;;1.92;0.55;;;20.70;68.40;;;;;;5047045;28;20112;-74
2021/10/01 08:36:34;;;;;;;1.30;0.55;;;20.70;68.30;;;;;;5045915;28;20024;-76
2021/10/01 08:39:01;;;;;;;2.28;0.85;;;20.70;68.30;;;;;;5047928;28;20448;-76
2021/10/01 08:41:27;;;;;;;2.38;0.68;;;20.80;68.30;;;;;;5042860;28;20511;-73
2021/10/01 08:43:54;;;;;;;2.72;0.45;;;20.90;67.90;;;;;;5048339;28;20487;-73
2021/10/01 08:46:22;;;;;;;0.80;0.40;;;20.90;67.20;;;;;;5042084;28;20378;-76
2021/10/01 08:48:50;;;;;;;2.03;0.38;;;21.00;66.90;;;;;;5048908;28;20045;-73
2021/10/01 08:51:17;;;;;;;0.65;0.65;;;21.00;66.20;;;;;;5042874;28;20388;-76
2021/10/01 08:53:45;;;;;;;8.35;1.05;;;21.10;66.50;;;;;;5048117;28;20056;-77
2021/10/01 08:56:12;;;;;;;4.18;0.90;;;21.20;66.30;;;;;;5045569;28;20020;-78
2021/10/01 08:58:38;;;;;;;2.08;0.73;;;21.20;66.20;;;;;;5047362;28;20488;-76
2021/10/01 09:01:05;;;;;;;1.20;0.57;;;21.30;66.30;;;;;;5048519;28;20041;-77
2021/10/01 09:03:32;;;;;;;3.78;0.75;;;21.40;65.90;;;;;;5048830;28;20025;-75
2021/10/01 09:05:58;;;;;;;0.68;0.32;;;21.50;65.20;;;;;;5050409;28;20031;-76
2021/10/01 09:08:25;;;;;;;3.35;0.65;;;21.60;65.20;;;;;;5043980;28;20041;-74
2021/10/01 09:11:07;;;;;;;3.90;0.43;;;21.70;64.80;;;;;;5045403;28;20017;-76
2021/10/01 09:13:34;;;;;;;3.42;0.50;;;21.70;64.60;;;;;;5046201;28;20060;-75
2021/10/01 09:16:06;;;;;;;1.98;0.52;;;21.80;64.40;;;;;;5049997;28;20013;-76
2021/10/01 09:18:36;;;;;;;3.22;0.55;;;21.90;64.30;;;;;;5041851;28;20047;-75
2021/10/01 09:21:23;;;;;;;0.63;0.45;;;21.90;63.80;;;;;;5043483;28;20035;-74
2021/10/01 09:24:02;;;;;;;2.65;0.40;;;22.00;64.30;;;;;;5044673;28;20044;-75
2021/10/01 09:26:30;;;;;;;8.82;0.77;;;22.00;63.30;;;;;;5044094;28;20056;-75
2021/10/01 09:28:58;;;;;;;2.28;0.50;;;22.00;63.30;;;;;;5049059;28;20024;-76
2021/10/01 09:31:45;;;;;;;1.60;0.52;;;22.00;63.20;;;;;;5044547;28;20059;-73
2021/10/01 09:34:14;;;;;;;3.67;1.00;;;22.10;63.10;;;;;;5043710;28;20414;-72
2021/10/01 09:36:42;;;;;;;3.20;0.70;;;22.20;63.10;;;;;;5047376;28;20869;-74
2021/10/01 09:39:25;;;;;;;0.95;0.43;;;22.30;63.00;;;;;;5040440;28;20013;-75
2021/10/01 09:41:52;;;;;;;2.53;0.77;;;22.30;62.80;;;;;;5043294;28;20024;-74
2021/10/01 09:44:19;;;;;;;3.03;0.77;;;22.40;63.70;;;;;;5043966;28;20033;-74
2021/10/01 09:46:52;;;;;;;2.47;0.80;;;22.40;63.00;;;;;;5045971;28;20040;-74
2021/10/01 09:49:30;;;;;;;3.80;0.85;;;22.50;62.20;;;;;;5043645;28;20021;-74
2021/10/01 09:51:57;;;;;;;0.70;0.70;;;22.60;62.00;;;;;;5046829;28;20064;-74
2021/10/01 09:54:24;;;;;;;1.00;0.80;;;22.60;61.70;;;;;;5046840;28;20560;-74
2021/10/01 09:56:52;;;;;;;1.95;0.55;;;22.60;61.70;;;;;;5041571;28;20032;-75
2021/10/01 09:59:30;;;;;;;0.82;0.50;;;22.70;60.90;;;;;;5058932;28;20495;-76
2021/10/01 10:02:00;;;;;;;1.88;0.40;;;22.70;60.80;;;;;;5061461;28;20021;-75
2021/10/01 10:04:41;;;;;;;0.80;0.50;;;22.80;61.00;;;;;;5058627;28;20647;-76
2021/10/01 10:07:19;;;;;;;1.60;0.40;;;22.80;61.00;;;;;;5060764;28;20021;-75
2021/10/01 10:09:53;;;;;;;0.93;0.50;;;22.90;60.80;;;;;;5060150;28;20036;-75
2021/10/01 10:12:34;;;;;;;2.30;0.30;;;22.90;60.40;;;;;;5054546;28;20029;-75
2021/10/01 10:15:03;;;;;;;2.05;0.52;;;23.00;60.00;;;;;;5056132;28;20025;-75
2021/10/01 10:17:31;;;;;;;1.67;0.68;;;23.00;59.70;;;;;;5056571;28;20025;-74
2021/10/01 10:20:00;;;;;;;0.80;0.60;;;23.00;59.30;;;;;;5058400;28;20044;-75
2021/10/01 10:22:29;;;;;;;1.10;0.68;;;23.10;59.70;;;;;;5054937;28;20038;-74
2021/10/01 10:24:56;;;;;;;0.93;0.50;;;23.10;58.70;;;;;;5056538;28;20025;-75
2021/10/01 10:27:25;;;;;;;4.10;0.63;;;23.10;59.00;;;;;;5054088;28;20036;-75
2021/10/01 10:29:52;;;;;;;4.47;0.65;;;23.20;58.70;;;;;;5063188;28;20028;-75
2021/10/01 10:32:22;;;;;;;3.53;1.00;;;23.20;58.40;;;;;;5056560;28;20021;-74
2021/10/01 10:34:59;;;;;;;4.55;3.15;;;23.30;58.80;;;;;;5055117;28;20380;-75
2021/10/01 10:37:44;;;;;;;2.33;0.82;;;23.40;58.40;;;;;;5060685;28;20152;-75
2021/10/01 10:40:15;;;;;;;1.45;0.68;;;23.40;58.10;;;;;;5056602;28;20021;-74
2021/10/01 10:42:45;;;;;;;6.35;1.13;;;23.50;57.70;;;;;;5056523;28;20021;-73
2021/10/01 10:45:20;;;;;;;1.25;0.40;;;23.60;57.70;;;;;;5056623;28;20012;-73
2021/10/01 10:47:52;;;;;;;4.22;0.70;;;23.70;56.80;;;;;;5055812;28;20021;-73
2021/10/01 10:50:22;;;;;;;1.38;0.40;;;23.70;56.40;;;;;;5054369;28;20419;-73
2021/10/01 10:53:14;;;;;;;2.50;0.50;;;23.80;55.80;;;;;;5053953;28;20495;-73
2021/10/01 10:55:51;;;;;;;1.50;0.80;;;23.80;55.70;;;;;;5059974;28;20383;-73
2021/10/01 10:58:23;;;;;;;2.65;0.68;;;23.90;55.40;;;;;;5054881;28;20048;-73
2021/10/01 11:01:23;;;;;;;5.07;0.82;;;23.90;54.80;;;;;;5056267;28;20382;-73
2021/10/01 11:04:10;;;;;;;2.85;0.68;;;24.00;54.60;;;;;;5055396;28;20020;-73
2021/10/01 11:06:39;;;;;;;3.75;1.10;;;24.10;54.30;;;;;;5057963;28;20082;-74
2021/10/01 11:09:16;;;;;;;5.20;1.17;;;24.10;54.00;;;;;;5050265;28;20022;-73
2021/10/01 11:11:48;;;;;;;8.48;1.40;;;24.20;54.30;;;;;;5044301;28;20784;-73
2021/10/01 11:14:23;;;;;;;7.22;1.73;;;24.20;54.30;;;;;;5046085;28;20031;-73
2021/10/01 11:16:52;;;;;;;;;;;24.30;54.10;;;;;;5044356;28;20024;-73
2021/10/01 11:19:39;;;;;;;5.00;1.55;;;24.30;53.90;;;;;;5045994;28;19913;-73
2021/10/01 11:22:36;;;;;;;3.50;1.45;;;24.30;53.40;;;;;;5042106;28;20549;-73
2021/10/01 11:25:14;;;;;;;8.30;2.30;;;24.30;53.60;;;;;;5043103;28;20101;-74
2021/10/01 11:27:55;;;;;;;6.30;1.60;;;24.30;54.10;;;;;;5053702;28;20026;-74
2021/10/01 11:30:23;;;;;;;4.55;1.48;;;24.30;53.80;;;;;;5041458;28;20035;-74
2021/10/01 11:32:51;;;;;;;5.90;1.60;;;24.30;54.10;;;;;;5044016;28;20056;-74
2021/10/01 11:35:18;;;;;;;3.58;1.77;;;24.20;55.10;;;;;;5044942;28;20025;-73
2021/10/01 11:37:48;;;;;;;7.78;1.63;;;24.20;54.60;;;;;;5045738;28;20476;-74
2021/10/01 11:40:24;;;;;;;7.32;2.08;;;24.20;55.20;;;;;;5042019;28;20025;-74
2021/10/01 11:42:53;;;;;;;9.80;2.05;;;24.20;55.70;;;;;;5048463;28;20116;-73
2021/10/01 11:45:19;;;;;;;5.70;1.77;;;24.10;55.60;;;;;;5043643;28;20087;-74
2021/10/01 11:48:08;;;;;;;5.20;1.20;;;24.10;55.80;;;;;;5037613;28;20026;-74
2021/10/01 11:50:49;;;;;;;15.57;2.35;;;24.10;55.70;;;;;;5044763;28;20560;-74
2021/10/01 11:53:25;;;;;;;5.20;1.40;;;24.10;55.50;;;;;;5037971;28;20013;-74
2021/10/01 11:55:58;;;;;;;7.90;1.95;;;24.10;55.60;;;;;;5041520;28;20024;-74
2021/10/01 11:58:27;;;;;;;6.93;1.67;;;24.10;55.80;;;;;;5045702;28;20056;-74
2021/10/01 12:00:55;;;;;;;6.85;1.70;;;24.10;56.10;;;;;;5044768;28;20498;-74
2021/10/01 12:03:22;;;;;;;9.88;2.05;;;24.10;56.70;;;;;;5043780;28;20025;-74
2021/10/01 12:05:55;;;;;;;9.80;2.03;;;24.20;56.10;;;;;;5040604;28;20029;-74
2021/10/01 12:08:23;;;;;;;8.75;1.90;;;24.20;56.00;;;;;;5042588;28;20480;-73
2021/10/01 12:10:54;;;;;;;10.23;2.22;;;24.10;56.00;;;;;;5042011;28;20013;-74
2021/10/01 12:13:27;;;;;;;11.25;2.38;;;24.10;56.00;;;;;;5045489;28;20026;-75
2021/10/01 12:16:00;;;;;;;4.70;1.70;;;24.20;56.00;;;;;;5040899;28;20380;-75
2021/10/01 12:18:33;;;;;;;20.17;5.05;;;24.20;56.10;;;;;;5044232;28;20040;-76
2021/10/01 12:21:05;;;;;;;11.65;6.90;;;24.10;56.30;;;;;;5037893;28;20029;-74
2021/10/01 12:23:38;;;;;;;7.47;4.72;;;24.10;56.60;;;;;;5037813;28;20026;-75
2021/10/01 12:26:14;;;;;;;7.78;1.63;;;24.00;56.60;;;;;;5037797;28;20017;-74
2021/10/01 12:28:42;;;;;;;6.18;1.60;;;24.10;56.20;;;;;;5037236;28;20017;-75
2021/10/01 12:31:08;;;;;;;8.68;1.90;;;24.00;56.20;;;;;;5041696;28;20017;-75
2021/10/01 12:33:35;;;;;;;9.65;2.28;;;24.00;56.20;;;;;;5039198;28;20491;-75
2021/10/01 12:36:02;;;;;;;5.32;2.05;;;24.00;56.50;;;;;;5035394;28;20029;-75
2021/10/01 12:38:28;;;;;;;9.70;1.30;;;24.10;56.10;;;;;;5038180;28;20032;-73
2021/10/01 12:41:15;;;;;;;8.23;2.00;;;24.00;55.90;;;;;;5038480;28;20068;-75
2021/10/01 12:43:45;;;;;;;8.55;2.42;;;24.00;56.00;;;;;;5038137;28;20021;-76
2021/10/01 12:46:12;;;;;;;6.35;2.13;;;24.00;56.00;;;;;;5037547;28;20021;-75
2021/10/01 12:48:38;;;;;;;16.05;2.92;;;23.90;55.80;;;;;;5038627;28;20487;-76
2021/10/01 12:51:23;;;;;;;6.00;1.65;;;23.90;56.10;;;;;;5044141;28;20850;-74
2021/10/01 12:53:50;;;;;;;;;;;23.90;56.20;;;;;;5037981;28;20022;-75
2021/10/01 12:56:18;;;;;;;17.10;9.75;;;23.80;56.30;;;;;;5039100;28;19909;-74
2021/10/01 12:58:45;;;;;;;8.73;2.95;;;23.80;56.80;;;;;;5038473;28;20514;-76
2021/10/01 13:01:18;;;;;;;7.05;2.65;;;23.80;56.70;;;;;;5040282;28;20025;-74
2021/10/01 13:03:49;;;;;;;6.82;2.38;;;23.70;56.80;;;;;;5036353;28;20431;-74
2021/10/01 13:06:31;;;;;;;11.15;2.75;;;23.60;56.80;;;;;;5037984;28;20029;-74
2021/10/01 13:08:57;;;;;;;9.00;2.13;;;23.50;56.70;;;;;;5037566;28;20025;-75
2021/10/01 13:11:24;;;;;;;11.85;1.67;;;23.50;57.00;;;;;;5039029;28;20067;-75
2021/10/01 13:13:50;;;;;;;7.72;2.22;;;23.40;57.10;;;;;;5046395;28;20025;-74
2021/10/01 13:16:25;;;;;;;7.55;1.92;;;23.40;57.30;;;;;;5041565;28;20021;-74
2021/10/01 13:19:04;;;;;;;6.85;1.55;;;23.40;57.40;;;;;;5038546;28;20025;-74
2021/10/01 13:21:30;;;;;;;10.45;1.40;;;23.40;57.60;;;;;;5038159;28;20430;-74
2021/10/01 13:24:01;;;;;;;9.77;1.52;;;23.40;57.90;;;;;;5045098;28;20017;-73
2021/10/01 13:26:41;;;;;;;5.53;2.03;;;23.40;57.90;;;;;;5040788;28;20021;-74
2021/10/01 13:29:10;;;;;;;6.72;1.50;;;23.30;57.60;;;;;;5043930;28;20103;-74
2021/10/01 13:31:42;;;;;;;5.80;1.52;;;23.20;57.90;;;;;;5038370;28;20523;-74
2021/10/01 13:34:13;;;;;;;12.57;2.72;;;23.10;58.00;;;;;;5040456;28;20038;-75
2021/10/01 13:36:40;;;;;;;6.80;1.65;;;22.90;57.70;;;;;;5038999;28;20096;-74
2021/10/01 13:39:07;;;;;;;10.30;1.30;;;22.80;57.70;;;;;;5041166;28;20041;-74
2021/10/01 13:41:34;;;;;;;3.97;1.70;;;22.70;57.60;;;;;;5038600;28;20019;-75
2021/10/01 13:44:01;;;;;;;5.38;2.00;;;22.70;57.60;;;;;;5040144;28;20037;-74
2021/10/01 13:46:28;;;;;;;5.72;1.23;;;22.70;57.70;;;;;;5043369;28;20076;-74
2021/10/01 13:48:54;;;;;;;9.05;1.55;;;22.70;57.20;;;;;;5038496;28;20024;-75
2021/10/01 13:51:21;;;;;;;8.40;3.47;;;22.70;57.40;;;;;;5042003;28;20029;-73
2021/10/01 13:53:48;;;;;;;10.02;2.63;;;22.70;57.50;;;;;;5044162;28;20020;-74
2021/10/01 13:56:15;;;;;;;4.95;1.77;;;22.70;57.30;;;;;;5043310;28;20024;-73
2021/10/01 13:58:41;;;;;;;7.30;2.63;;;22.70;57.30;;;;;;5036163;28;20037;-75
2021/10/01 14:01:08;;;;;;;9.05;1.63;;;22.60;57.70;;;;;;5045467;28;20029;-74
2021/10/01 14:03:34;;;;;;;8.90;1.73;;;22.60;58.40;;;;;;5035444;28;20082;-74
2021/10/01 14:06:02;;;;;;;7.43;1.42;;;22.60;58.20;;;;;;5040666;28;20029;-74
2021/10/01 14:08:28;;;;;;;3.97;1.70;;;22.50;58.40;;;;;;5043151;28;20020;-74
2021/10/01 14:10:55;;;;;;;5.63;1.77;;;22.50;58.80;;;;;;5042910;28;20021;-74
2021/10/01 14:13:21;;;;;;;6.03;1.38;;;22.50;58.60;;;;;;5042666;28;20494;-74
2021/10/01 14:15:51;;;;;;;6.20;1.73;;;22.40;58.70;;;;;;5039735;28;20029;-75
2021/10/01 14:18:18;;;;;;;5.15;1.48;;;22.40;59.30;;;;;;5042322;28;20484;-74
2021/10/01 14:20:45;;;;;;;12.27;2.70;;;22.30;59.50;;;;;;5038985;28;20029;-74
2021/10/01 14:23:12;;;;;;;4.45;1.67;;;22.10;60.00;;;;;;5041997;28;20080;-74
2021/10/01 14:25:39;;;;;;;6.13;1.50;;;22.10;60.40;;;;;;5040664;28;20028;-74
2021/10/01 14:28:07;;;;;;;4.97;1.40;;;22.00;60.90;;;;;;5041581;28;20333;-74
2021/10/01 14:30:35;;;;;;;10.05;3.20;;;21.90;61.10;;;;;;5038842;28;20024;-74
2021/10/01 14:33:03;;;;;;;8.02;2.22;;;21.80;61.40;;;;;;5043495;28;20425;-74
2021/10/01 14:35:30;;;;;;;7.47;1.50;;;21.70;61.30;;;;;;5040150;28;20082;-75